createdAt,value
2018-12-15T00:00:45.054Z,1.77
2018-12-15T00:03:12.521Z,1.91
2018-12-15T00:05:39.966Z,1.80
2018-12-15T00:08:07.407Z,1.79
2018-12-15T00:10:34.874Z,2.16
2018-12-15T00:13:02.322Z,2.09
2018-12-15T00:15:29.781Z,2.13
2018-12-15T00:17:57.221Z,1.81
2018-12-15T00:20:24.684Z,2.26
2018-12-15T00:22:52.147Z,1.81
2018-12-15T00:25:19.601Z,2.28
2018-12-15T00:27:47.065Z,2.20
2018-12-15T00:30:14.874Z,1.96
2018-12-15T00:32:42.680Z,1.44
2018-12-15T00:35:10.149Z,1.51
2018-12-15T00:37:37.613Z,1.30
2018-12-15T00:40:08.100Z,1.39
2018-12-15T00:42:35.552Z,2.02
2018-12-15T00:45:04.536Z,2.06
2018-12-15T00:47:31.977Z,2.27
2018-12-15T00:49:59.442Z,2.12
2018-12-15T00:52:26.885Z,2.29
2018-12-15T00:54:54.343Z,2.57
2018-12-15T00:57:21.798Z,2.44
2018-12-15T00:59:49.248Z,2.46
2018-12-15T01:02:16.753Z,2.36
2018-12-15T01:04:44.201Z,2.19
2018-12-15T01:07:11.661Z,2.07
2018-12-15T01:09:39.109Z,1.92
2018-12-15T01:12:06.570Z,2.10
2018-12-15T01:14:34.017Z,2.01
2018-12-15T01:17:01.495Z,2.38
2018-12-15T01:19:28.949Z,2.05
2018-12-15T01:21:56.410Z,1.51
2018-12-15T01:24:23.858Z,1.97
2018-12-15T01:26:51.316Z,1.84
2018-12-15T01:29:18.805Z,2.31
2018-12-15T01:31:46.269Z,2.25
2018-12-15T01:34:13.710Z,2.19
2018-12-15T01:36:41.174Z,2.30
2018-12-15T01:39:08.751Z,2.02
2018-12-15T01:41:36.209Z,2.00
2018-12-15T01:44:03.648Z,2.14
2018-12-15T01:46:31.100Z,2.05
2018-12-15T01:48:58.568Z,2.10
2018-12-15T01:51:26.014Z,1.99
2018-12-15T01:53:53.482Z,2.14
2018-12-15T01:56:20.933Z,1.99
2018-12-15T01:58:48.405Z,2.38
2018-12-15T02:01:15.866Z,2.00
2018-12-15T02:03:43.333Z,1.78
2018-12-15T02:06:10.783Z,2.03
2018-12-15T02:08:38.394Z,2.28
2018-12-15T02:11:05.841Z,2.10
2018-12-15T02:13:33.297Z,2.22
2018-12-15T02:16:00.747Z,2.66
2018-12-15T02:18:28.378Z,2.16
2018-12-15T02:20:55.832Z,2.46
2018-12-15T02:23:23.298Z,1.80
2018-12-15T02:25:50.817Z,1.72
2018-12-15T02:28:18.283Z,1.91
2018-12-15T02:30:45.721Z,2.25
2018-12-15T02:33:13.181Z,2.43
2018-12-15T02:35:40.629Z,2.47
2018-12-15T02:38:08.087Z,2.45
2018-12-15T02:40:35.542Z,2.43
2018-12-15T02:43:02.998Z,1.96
2018-12-15T02:45:30.458Z,2.12
2018-12-15T02:47:57.922Z,2.06
2018-12-15T02:50:25.385Z,2.00
2018-12-15T02:52:52.832Z,1.84
2018-12-15T02:55:20.432Z,1.71
2018-12-15T02:57:47.882Z,1.75
2018-12-15T03:00:15.341Z,2.49
2018-12-15T03:02:43.013Z,2.16
2018-12-15T03:05:10.471Z,2.30
2018-12-15T03:07:37.913Z,2.35
2018-12-15T03:10:06.541Z,2.49
2018-12-15T03:12:33.986Z,2.09
2018-12-15T03:15:01.455Z,1.75
2018-12-15T03:17:28.903Z,1.85
2018-12-15T03:19:59.941Z,2.18
2018-12-15T03:22:27.977Z,2.28
2018-12-15T03:24:55.429Z,2.19
2018-12-15T03:27:23.277Z,2.03
2018-12-15T03:29:50.718Z,1.90
2018-12-15T03:32:18.183Z,1.73
2018-12-15T03:34:45.622Z,2.01
2018-12-15T03:37:13.086Z,2.37
2018-12-15T03:39:40.532Z,2.77
2018-12-15T03:42:07.999Z,2.33
2018-12-15T03:44:35.436Z,2.11
2018-12-15T03:47:02.908Z,2.44
2018-12-15T03:49:30.353Z,2.41
2018-12-15T03:51:57.822Z,2.13
2018-12-15T03:54:25.272Z,1.90
2018-12-15T03:56:52.744Z,2.20
2018-12-15T03:59:20.686Z,1.84
2018-12-15T04:01:48.146Z,1.86
2018-12-15T04:04:15.586Z,1.86
2018-12-15T04:06:43.072Z,2.32
2018-12-15T04:09:10.532Z,1.90
2018-12-15T04:11:37.988Z,1.80
2018-12-15T04:14:05.455Z,1.57
2018-12-15T04:16:33.011Z,1.77
2018-12-15T04:19:00.470Z,1.93
2018-12-15T04:21:27.919Z,1.97
2018-12-15T04:23:55.394Z,1.77
2018-12-15T04:26:22.853Z,1.91
2018-12-15T04:28:50.297Z,1.27
2018-12-15T04:31:17.773Z,1.32
2018-12-15T04:33:45.231Z,1.31
2018-12-15T04:36:15.467Z,1.20
2018-12-15T04:38:42.906Z,1.11
2018-12-15T04:41:10.417Z,1.32
2018-12-15T04:43:37.870Z,1.19
2018-12-15T04:46:05.316Z,1.49
2018-12-15T04:48:32.775Z,1.18
2018-12-15T04:51:00.242Z,1.14
2018-12-15T04:53:27.696Z,1.08
2018-12-15T04:55:55.148Z,1.08
2018-12-15T04:58:22.610Z,1.11
2018-12-15T05:00:50.066Z,1.11
2018-12-15T05:03:17.533Z,1.18
2018-12-15T05:05:44.992Z,1.03
2018-12-15T05:08:12.521Z,0.86
2018-12-15T05:10:39.985Z,1.11
2018-12-15T05:13:07.442Z,0.96
2018-12-15T05:15:34.913Z,1.06
2018-12-15T05:18:02.377Z,1.08
2018-12-15T05:20:29.826Z,1.08
2018-12-15T05:22:57.297Z,1.18
2018-12-15T05:25:24.745Z,1.35
2018-12-15T05:27:52.216Z,1.26
2018-12-15T05:30:19.665Z,1.52
2018-12-15T05:32:47.136Z,1.30
2018-12-15T05:35:14.585Z,1.77
2018-12-15T05:37:42.104Z,1.32
2018-12-15T05:40:09.717Z,1.48
2018-12-15T05:42:37.186Z,1.29
2018-12-15T05:45:05.614Z,1.27
2018-12-15T05:47:33.075Z,1.45
2018-12-15T05:50:00.524Z,1.29
2018-12-15T05:52:27.990Z,1.13
2018-12-15T05:54:55.442Z,1.49
2018-12-15T05:57:22.901Z,1.48
2018-12-15T05:59:50.365Z,1.23
2018-12-15T06:02:18.633Z,1.21
2018-12-15T06:04:46.086Z,1.37
2018-12-15T06:07:13.550Z,1.23
2018-12-15T06:09:41.021Z,1.32
2018-12-15T06:12:08.481Z,1.23
2018-12-15T06:14:35.946Z,1.54
2018-12-15T06:17:03.399Z,1.18
2018-12-15T06:19:30.869Z,0.87
2018-12-15T06:21:58.310Z,0.87
2018-12-15T06:24:25.782Z,0.96
2018-12-15T06:26:53.237Z,1.13
2018-12-15T06:29:20.696Z,0.85
2018-12-15T06:31:48.153Z,1.09
2018-12-15T06:34:15.613Z,0.84
2018-12-15T06:36:43.060Z,1.27
2018-12-15T06:39:10.526Z,1.58
2018-12-15T06:41:37.986Z,1.38
2018-12-15T06:44:05.465Z,1.45
2018-12-15T06:46:32.918Z,1.14
2018-12-15T06:49:00.374Z,1.09
2018-12-15T06:51:27.824Z,1.26
2018-12-15T06:53:55.281Z,1.28
2018-12-15T06:56:24.734Z,1.25
2018-12-15T06:58:52.181Z,1.12
2018-12-15T07:01:19.636Z,0.93
2018-12-15T07:03:47.101Z,0.81
2018-12-15T07:06:14.574Z,0.71
2018-12-15T07:08:42.028Z,0.71
2018-12-15T07:11:09.487Z,0.82
2018-12-15T07:13:37.009Z,0.72
2018-12-15T07:16:04.570Z,1.00
2018-12-15T07:18:32.018Z,0.91
2018-12-15T07:20:59.485Z,1.10
2018-12-15T07:23:26.939Z,0.98
2018-12-15T07:25:54.800Z,1.01
2018-12-15T07:28:22.251Z,0.76
2018-12-15T07:30:49.709Z,1.10
2018-12-15T07:33:17.165Z,0.92
2018-12-15T07:35:44.630Z,0.90
2018-12-15T07:38:12.512Z,0.87
2018-12-15T07:40:39.977Z,0.93
2018-12-15T07:43:07.417Z,0.94
2018-12-15T07:45:34.870Z,1.34
2018-12-15T07:48:02.332Z,1.07
2018-12-15T07:50:29.777Z,1.07
2018-12-15T07:52:57.375Z,0.96
2018-12-15T07:55:24.824Z,0.96
2018-12-15T07:57:52.281Z,1.03
2018-12-15T08:00:19.729Z,1.00
2018-12-15T08:02:47.195Z,0.94
2018-12-15T08:05:15.698Z,0.92
2018-12-15T08:07:43.322Z,0.98
2018-12-15T08:10:10.943Z,0.97
2018-12-15T08:12:40.389Z,0.84
2018-12-15T08:15:07.926Z,0.80
2018-12-15T08:17:35.397Z,0.93
2018-12-15T08:20:04.137Z,0.88
2018-12-15T08:22:31.614Z,1.00
2018-12-15T08:24:59.057Z,1.02
2018-12-15T08:27:26.513Z,0.94
2018-12-15T08:29:54.006Z,1.17
2018-12-15T08:32:21.461Z,1.18
2018-12-15T08:34:48.924Z,1.15
2018-12-15T08:37:16.369Z,1.22
2018-12-15T08:39:43.850Z,1.33
2018-12-15T08:42:11.302Z,1.32
2018-12-15T08:44:38.775Z,1.14
2018-12-15T08:47:06.216Z,1.25
2018-12-15T08:49:33.686Z,1.01
2018-12-15T08:52:01.155Z,1.24
2018-12-15T08:54:28.639Z,1.05
2018-12-15T08:56:56.092Z,1.37
2018-12-15T08:59:23.556Z,1.31
2018-12-15T09:01:51.021Z,2.56
2018-12-15T09:04:18.534Z,1.60
2018-12-15T09:06:45.992Z,1.40
2018-12-15T09:09:13.461Z,1.46
2018-12-15T09:11:40.951Z,1.38
2018-12-15T09:14:08.410Z,1.47
2018-12-15T09:16:35.876Z,1.70
2018-12-15T09:19:03.340Z,1.54
2018-12-15T09:21:31.274Z,2.07
2018-12-15T09:23:58.722Z,2.11
2018-12-15T09:26:26.299Z,1.73
2018-12-15T09:28:53.768Z,2.23
2018-12-15T09:31:21.229Z,2.13
2018-12-15T09:33:48.681Z,1.91
2018-12-15T09:36:16.249Z,2.24
2018-12-15T09:38:43.696Z,1.71
2018-12-15T09:41:11.267Z,1.74
2018-12-15T09:43:38.725Z,2.17
2018-12-15T09:46:06.182Z,2.32
2018-12-15T09:48:33.633Z,2.35
2018-12-15T09:51:01.104Z,2.19
2018-12-15T09:53:29.054Z,2.33
2018-12-15T09:55:56.590Z,2.21
2018-12-15T09:58:24.035Z,2.16
2018-12-15T10:00:51.494Z,1.94
2018-12-15T10:03:18.938Z,1.99
2018-12-15T10:05:46.383Z,2.12
2018-12-15T10:08:13.845Z,2.17
2018-12-15T10:10:41.322Z,2.07
2018-12-15T10:13:08.782Z,2.28
2018-12-15T10:15:36.217Z,2.30
2018-12-15T10:18:03.783Z,2.29
2018-12-15T10:20:31.657Z,2.79
2018-12-15T10:22:59.117Z,2.58
2018-12-15T10:25:26.561Z,2.58
2018-12-15T10:27:54.033Z,2.34
2018-12-15T10:30:27.115Z,2.90
2018-12-15T10:32:54.585Z,2.46
2018-12-15T10:35:22.110Z,2.46
2018-12-15T10:37:49.569Z,3.09
2018-12-15T10:40:17.098Z,3.33
2018-12-15T10:42:44.573Z,2.47
2018-12-15T10:45:12.028Z,2.62
2018-12-15T10:47:39.473Z,2.66
2018-12-15T10:50:09.002Z,2.73
2018-12-15T10:52:36.539Z,3.13
2018-12-15T10:55:05.473Z,3.09
2018-12-15T10:57:32.912Z,3.14
2018-12-15T11:00:00.381Z,3.11
2018-12-15T11:02:27.821Z,3.03
2018-12-15T11:04:55.286Z,3.13
2018-12-15T11:07:22.742Z,3.10
2018-12-15T11:09:51.133Z,2.87
2018-12-15T11:12:18.569Z,3.28
2018-12-15T11:14:46.029Z,3.52
2018-12-15T11:17:13.470Z,3.16
2018-12-15T11:19:40.938Z,3.30
2018-12-15T11:22:08.390Z,2.72
2018-12-15T11:24:35.850Z,2.82
2018-12-15T11:27:03.292Z,2.93
2018-12-15T11:29:30.755Z,3.07
2018-12-15T11:31:58.201Z,2.52
2018-12-15T11:34:25.650Z,2.77
2018-12-15T11:36:53.115Z,2.36
2018-12-15T11:39:20.558Z,2.18
2018-12-15T11:41:48.031Z,2.17
2018-12-15T11:44:15.474Z,2.58
2018-12-15T11:46:42.938Z,2.39
2018-12-15T11:49:10.381Z,2.41
2018-12-15T11:51:38.957Z,2.48
2018-12-15T11:54:06.398Z,2.37
2018-12-15T11:56:33.855Z,2.66
2018-12-15T11:59:01.299Z,2.34
2018-12-15T12:01:28.843Z,2.27
2018-12-15T12:03:56.295Z,2.50
2018-12-15T12:06:23.749Z,2.23
2018-12-15T12:08:51.206Z,2.08
2018-12-15T12:11:18.658Z,2.47
2018-12-15T12:13:46.121Z,2.40
2018-12-15T12:16:13.601Z,2.59
2018-12-15T12:18:41.046Z,2.59
2018-12-15T12:21:08.504Z,2.45
2018-12-15T12:23:35.957Z,2.60
2018-12-15T12:26:03.397Z,2.80
2018-12-15T12:28:30.875Z,2.88
2018-12-15T12:30:58.335Z,2.67
2018-12-15T12:33:25.804Z,2.47
2018-12-15T12:35:53.258Z,2.69
2018-12-15T12:38:20.711Z,2.41
2018-12-15T12:40:48.149Z,2.63
2018-12-15T12:43:15.606Z,2.72
2018-12-15T12:45:43.051Z,2.79
2018-12-15T12:48:10.509Z,2.77
2018-12-15T12:50:37.957Z,2.76
2018-12-15T12:53:05.420Z,2.23
2018-12-15T12:55:32.861Z,2.80
2018-12-15T12:58:00.350Z,2.74
2018-12-15T13:00:27.845Z,2.68
2018-12-15T13:02:55.298Z,2.71
2018-12-15T13:05:22.739Z,2.52
2018-12-15T13:07:50.695Z,3.05
2018-12-15T13:10:18.155Z,3.01
2018-12-15T13:12:45.593Z,3.01
2018-12-15T13:15:13.090Z,3.22
2018-12-15T13:17:40.545Z,3.01
2018-12-15T13:20:08.094Z,3.08
2018-12-15T13:22:35.543Z,2.97
2018-12-15T13:25:02.996Z,3.18
2018-12-15T13:27:30.499Z,3.03
2018-12-15T13:29:57.957Z,3.23
2018-12-15T13:32:25.397Z,3.34
2018-12-15T13:34:52.867Z,3.32
2018-12-15T13:37:20.397Z,3.18
2018-12-15T13:39:47.857Z,3.09
2018-12-15T13:42:15.302Z,2.77
2018-12-15T13:44:42.794Z,3.07
2018-12-15T13:47:10.234Z,2.89
2018-12-15T13:49:37.851Z,3.09
2018-12-15T13:52:05.305Z,3.57
2018-12-15T13:54:32.773Z,2.98
2018-12-15T13:57:00.225Z,3.30
2018-12-15T13:59:27.701Z,2.58
2018-12-15T14:01:55.182Z,3.07
2018-12-15T14:04:22.622Z,3.07
2018-12-15T14:06:50.102Z,3.03
2018-12-15T14:09:17.549Z,3.01
2018-12-15T14:11:44.998Z,2.99
2018-12-15T14:14:12.448Z,3.09
2018-12-15T14:16:39.910Z,2.95
2018-12-15T14:19:07.355Z,2.65
2018-12-15T14:21:34.828Z,2.97
2018-12-15T14:24:02.271Z,3.16
2018-12-15T14:26:29.753Z,3.53
2018-12-15T14:28:57.195Z,3.07
2018-12-15T14:31:24.660Z,3.09
2018-12-15T14:33:52.100Z,3.49
2018-12-15T14:36:19.577Z,3.20
2018-12-15T14:38:47.019Z,3.12
2018-12-15T14:41:14.484Z,2.99
2018-12-15T14:43:41.923Z,2.79
2018-12-15T14:46:09.386Z,2.87
2018-12-15T14:51:03.574Z,2.84
2018-12-15T14:53:31.026Z,2.95
2018-12-15T14:55:58.470Z,2.44
2018-12-15T14:58:26.030Z,2.51
2018-12-15T15:00:53.465Z,2.67
2018-12-15T15:03:20.925Z,2.81
2018-12-15T15:05:48.376Z,2.50
2018-12-15T15:08:15.867Z,2.72
2018-12-15T15:10:43.423Z,2.68
2018-12-15T15:13:10.888Z,2.51
2018-12-15T15:15:38.332Z,2.66
2018-12-15T15:18:06.281Z,2.39
2018-12-15T15:20:33.725Z,2.26
2018-12-15T15:23:01.182Z,2.19
2018-12-15T15:25:28.623Z,2.57
2018-12-15T15:27:56.089Z,2.51
2018-12-15T15:30:23.576Z,2.45
2018-12-15T15:32:51.039Z,2.14
2018-12-15T15:35:18.683Z,2.24
2018-12-15T15:37:46.119Z,1.99
2018-12-15T15:40:13.727Z,2.15
2018-12-15T15:42:41.284Z,2.32
2018-12-15T15:45:08.856Z,2.20
2018-12-15T15:47:36.288Z,2.34
2018-12-15T15:50:05.315Z,2.15
2018-12-15T15:52:32.745Z,2.27
2018-12-15T15:55:00.210Z,2.25
2018-12-15T15:57:27.650Z,2.28
2018-12-15T15:59:55.110Z,2.38
2018-12-15T16:02:22.558Z,2.24
2018-12-15T16:04:50.026Z,2.21
2018-12-15T16:07:17.464Z,2.08
2018-12-15T16:09:45.203Z,2.22
2018-12-15T16:12:13.003Z,2.29
2018-12-15T16:14:40.461Z,2.20
2018-12-15T16:17:07.906Z,2.24
2018-12-15T16:19:35.363Z,2.29
2018-12-15T16:22:02.874Z,2.15
2018-12-15T16:24:30.324Z,2.45
2018-12-15T16:26:57.883Z,2.20
2018-12-15T16:29:25.332Z,2.28
2018-12-15T16:31:52.804Z,2.25
2018-12-15T16:34:20.253Z,2.46
2018-12-15T16:36:47.731Z,2.36
2018-12-15T16:39:15.160Z,2.04
2018-12-15T16:41:42.634Z,2.07
2018-12-15T16:44:10.079Z,2.15
2018-12-15T16:46:37.547Z,2.37
2018-12-15T16:49:06.067Z,2.56
2018-12-15T16:51:33.883Z,2.25
2018-12-15T16:54:01.329Z,2.41
2018-12-15T16:56:28.798Z,2.30
2018-12-15T16:58:56.250Z,2.50
2018-12-15T17:01:23.712Z,2.25
2018-12-15T17:03:51.165Z,2.35
2018-12-15T17:06:18.626Z,2.50
2018-12-15T17:08:46.074Z,2.47
2018-12-15T17:11:13.546Z,2.73
2018-12-15T17:13:40.997Z,2.78
2018-12-15T17:16:08.438Z,2.52
2018-12-15T17:18:35.895Z,2.24
2018-12-15T17:21:03.434Z,2.11
2018-12-15T17:23:30.906Z,2.39
2018-12-15T17:25:58.355Z,2.46
2018-12-15T17:28:25.941Z,2.13
2018-12-15T17:30:53.556Z,2.54
2018-12-15T17:33:21.025Z,2.39
2018-12-15T17:35:48.469Z,2.01
2018-12-15T17:38:15.932Z,2.24
2018-12-15T17:40:43.385Z,2.03
2018-12-15T17:43:10.848Z,2.10
2018-12-15T17:45:38.298Z,2.22
2018-12-15T17:48:05.751Z,2.01
2018-12-15T17:50:33.655Z,2.30
2018-12-15T17:53:01.122Z,2.09
2018-12-15T17:55:28.565Z,1.99
2018-12-15T17:57:56.017Z,2.06
2018-12-15T18:00:23.931Z,2.06
2018-12-15T18:02:51.376Z,2.07
2018-12-15T18:05:18.842Z,2.00
2018-12-15T18:07:46.277Z,1.94
2018-12-15T18:10:13.829Z,2.12
2018-12-15T18:12:41.272Z,2.13
2018-12-15T18:15:08.811Z,2.42
2018-12-15T18:17:36.885Z,1.94
2018-12-15T18:20:05.229Z,2.01
2018-12-15T18:22:32.676Z,2.06
2018-12-15T18:25:00.140Z,1.80
2018-12-15T18:27:27.602Z,1.81
2018-12-15T18:29:55.053Z,1.88
2018-12-15T18:32:23.170Z,1.94
2018-12-15T18:34:50.637Z,1.91
2018-12-15T18:37:18.094Z,1.78
2018-12-15T18:39:45.548Z,1.81
2018-12-15T18:42:12.995Z,1.95
2018-12-15T18:44:40.498Z,1.75
2018-12-15T18:47:07.960Z,1.94
2018-12-15T18:49:35.429Z,1.54
2018-12-15T18:52:02.882Z,1.45
2018-12-15T18:54:30.323Z,1.44
2018-12-15T18:56:57.778Z,1.63
2018-12-15T18:59:25.227Z,1.46
2018-12-15T19:01:52.693Z,1.51
2018-12-15T19:04:20.143Z,1.34
2018-12-15T19:06:47.601Z,1.44
2018-12-15T19:09:15.052Z,1.31
2018-12-15T19:11:43.179Z,1.33
2018-12-15T19:14:10.622Z,1.30
2018-12-15T19:16:38.070Z,1.29
2018-12-15T19:19:05.533Z,1.23
2018-12-15T19:21:33.009Z,1.30
2018-12-15T19:24:00.558Z,1.25
2018-12-15T19:26:28.028Z,1.25
2018-12-15T19:28:55.475Z,1.10
2018-12-15T19:31:22.925Z,1.15
2018-12-15T19:33:50.363Z,1.09
2018-12-15T19:36:17.810Z,1.46
2018-12-15T19:38:45.270Z,1.32
2018-12-15T19:41:12.740Z,1.43
2018-12-15T19:43:40.209Z,1.41
2018-12-15T19:46:07.714Z,1.33
2018-12-15T19:48:35.168Z,1.24
2018-12-15T19:51:02.621Z,1.28
2018-12-15T19:53:30.079Z,1.30
2018-12-15T19:55:57.537Z,1.32
2018-12-15T19:58:25.008Z,1.40
2018-12-15T20:00:52.507Z,1.31
2018-12-15T20:03:20.078Z,1.20
2018-12-15T20:05:47.527Z,1.22
2018-12-15T20:08:14.983Z,1.35
2018-12-15T20:10:42.434Z,1.63
2018-12-15T20:13:09.893Z,1.74
2018-12-15T20:15:37.346Z,1.49
2018-12-15T20:18:04.809Z,1.49
2018-12-15T20:20:32.252Z,1.86
2018-12-15T20:23:00.058Z,1.67
2018-12-15T20:25:27.519Z,2.03
2018-12-15T20:27:54.981Z,1.34
2018-12-15T20:30:22.441Z,1.24
2018-12-15T20:32:49.897Z,1.30
2018-12-15T20:35:17.465Z,1.18
2018-12-15T20:37:44.913Z,1.01
2018-12-15T20:40:12.461Z,1.23
2018-12-15T20:42:39.918Z,1.09
2018-12-15T20:45:07.388Z,1.04
2018-12-15T20:47:34.842Z,0.84
2018-12-15T20:50:02.310Z,0.91
2018-12-15T20:52:29.762Z,0.97
2018-12-15T20:54:57.217Z,0.96
2018-12-15T20:57:24.678Z,0.61
2018-12-15T20:59:52.146Z,0.69
2018-12-15T21:02:19.606Z,0.63
2018-12-15T21:04:47.066Z,0.74
2018-12-15T21:07:14.527Z,0.67
2018-12-15T21:09:41.987Z,0.59
2018-12-15T21:12:09.459Z,0.44
2018-12-15T21:14:36.901Z,0.54
2018-12-15T21:17:04.485Z,0.58
2018-12-15T21:19:31.933Z,0.55
2018-12-15T21:21:59.421Z,0.37
2018-12-15T21:24:26.863Z,0.34
2018-12-15T21:26:54.337Z,0.40
2018-12-15T21:29:21.788Z,0.39
2018-12-15T21:31:49.258Z,0.32
2018-12-15T21:34:16.726Z,0.47
2018-12-15T21:36:44.197Z,0.28
2018-12-15T21:39:11.643Z,0.28
2018-12-15T21:41:39.113Z,0.33
2018-12-15T21:44:06.561Z,0.25
2018-12-15T21:46:34.044Z,0.12
2018-12-15T21:49:01.501Z,0.14
2018-12-15T21:51:28.967Z,-0.02
2018-12-15T21:53:56.465Z,-0.09
2018-12-15T21:56:23.933Z,0.02
2018-12-15T21:58:51.384Z,-0.01
2018-12-15T22:01:18.832Z,-0.09
2018-12-15T22:03:46.292Z,-0.09
2018-12-15T22:06:13.754Z,-0.15
2018-12-15T22:08:41.225Z,0.00
2018-12-15T22:11:08.801Z,-0.01
2018-12-15T22:13:36.269Z,-0.13
2018-12-15T22:16:03.996Z,-0.04
2018-12-15T22:18:31.458Z,0.43
2018-12-15T22:20:59.094Z,0.14
2018-12-15T22:23:26.574Z,-0.16
2018-12-15T22:25:54.047Z,-0.28
2018-12-15T22:28:21.525Z,-0.70
2018-12-15T22:30:48.983Z,-0.72
2018-12-15T22:33:16.453Z,-0.89
2018-12-15T22:35:43.908Z,-1.05
2018-12-15T22:38:11.373Z,-0.93
2018-12-15T22:40:38.842Z,-1.06
2018-12-15T22:43:06.897Z,-0.85
2018-12-15T22:45:34.363Z,-0.96
2018-12-15T22:48:01.822Z,-0.95
2018-12-15T22:50:29.348Z,-1.01
2018-12-15T22:52:56.889Z,-1.23
2018-12-15T22:55:24.369Z,-1.45
2018-12-15T22:57:51.831Z,-1.44
2018-12-15T23:00:19.441Z,-1.56
2018-12-15T23:02:46.901Z,-1.51
2018-12-15T23:05:14.378Z,-1.32
2018-12-15T23:07:41.837Z,-1.43
2018-12-15T23:10:09.973Z,-1.59
2018-12-15T23:12:37.435Z,-1.58
2018-12-15T23:15:06.565Z,-1.47
2018-12-15T23:17:34.023Z,-1.35
2018-12-15T23:20:01.487Z,-1.75
2018-12-15T23:22:28.941Z,-1.77
2018-12-15T23:24:56.411Z,-1.64
2018-12-15T23:27:23.876Z,-1.59
2018-12-15T23:29:51.383Z,-1.34
2018-12-15T23:32:18.842Z,-1.14
2018-12-15T23:34:46.319Z,-1.45
2018-12-15T23:37:13.774Z,-1.32
2018-12-15T23:39:41.293Z,-1.74
2018-12-15T23:42:08.812Z,-1.86
2018-12-15T23:44:36.282Z,-1.90
2018-12-15T23:47:03.860Z,-1.61
2018-12-15T23:49:31.314Z,-1.90
2018-12-15T23:51:58.782Z,-1.85
2018-12-15T23:54:26.233Z,-1.89
2018-12-15T23:56:53.701Z,-1.91
2018-12-15T23:59:21.150Z,-1.84
